< < Back
Terminal Aerodrome Forecast


Current Version              Previous Versions:   1  2  3  4  5  6  7  8  9  

Terminal Aerodrome Forecast

023
FTUS44 KOHX 252000 AAA
TAFCSV
TAF AMD
KCSV 252040Z 2521/2618 17010G18KT 5SM -SHRA BR VCTS SCT015 OVC030CB
      TEMPO 2521/2524 2SM TSRA BR BKN015CB OVC025
     FM260400 16006KT P6SM OVC040
     FM260900 18006KT 5SM BR VCSH OVC015
     FM261300 19011KT 5SM -SHRA BR VCTS OVC020CB=

Latest METAR

342
SAUS70 KWBC 260300 RRL
MTRCSV
METAR KCSV 260253Z AUTO 18003KT 10SM CLR 19/17 A3022 RMK AO2 SLP217
T01890172 53003


USA.gov is the U.S. government's official web portal to all federal, state and local government web resources and services.